Time;durP1;ratioP1;P1;durP2;ratioP2;P2;SDS_P1;SDS_P2;PMS_P1;PMS_P2;Temp;Humidity;BMP_temperature;BMP_pressure;BME280_temperature;BME280_humidity;BME280_pressure;Samples;Min_cycle;Max_cycle;Signal;HPM_P1;HPM_P2
2022/10/17 00:02:19;;;;;;;;;;;;;;;;;;4990752;28;20808;-61
2022/10/17 00:04:44;;;;;;;;;;;;;;;;;;5003285;28;19917;-61
2022/10/17 00:07:09;;;;;;;;;;;;;;;;;;4995180;28;19917;-61
2022/10/17 00:09:34;;;;;;;;;;;;;;;;;;5003132;28;20711;-61
2022/10/17 00:12:01;;;;;;;;;;;;;;;;;;4994396;28;19924;-62
2022/10/17 00:14:26;;;;;;;;;;;;;;;;;;4993965;28;19921;-62
2022/10/17 00:16:51;;;;;;;;;;;;;;;;;;5000788;28;19932;-61
2022/10/17 00:19:16;;;;;;;;;;;;;;;;;;4996499;28;19976;-61
2022/10/17 00:21:42;;;;;;;;;;;;;;;;;;5000943;28;20623;-61
2022/10/17 00:24:07;;;;;;;;;;;;;;;;;;4991429;28;19925;-62
2022/10/17 00:26:32;;;;;;;;;;;;;;;;;;4995671;28;19922;-61
2022/10/17 00:28:57;;;;;;;;;;;;;;;;;;4998658;28;20003;-62
2022/10/17 00:31:22;;;;;;;;;;;;;;;;;;4978378;28;20365;-61
2022/10/17 00:33:48;;;;;;;;;;;;;;;;;;4997244;28;19924;-61
2022/10/17 00:36:14;;;;;;;;;;;;;;;;;;4977011;28;19972;-62
2022/10/17 00:38:39;;;;;;;;;;;;;;;;;;4979078;28;20000;-61
2022/10/17 00:41:04;;;;;;;;;;;;;;;;;;4984983;28;19926;-61
2022/10/17 00:43:30;;;;;;;;;;;;;;;;;;4978302;28;19917;-61
2022/10/17 00:45:55;;;;;;;;;;;;;;;;;;4998415;28;19975;-61
2022/10/17 00:48:20;;;;;;;;;;;;;;;;;;4991868;28;19960;-62
2022/10/17 00:50:45;;;;;;;;;;;;;;;;;;4979372;28;20004;-62
2022/10/17 00:53:10;;;;;;;;;;;;;;;;;;4984875;28;19924;-61
2022/10/17 00:55:35;;;;;;;;;;;;;;;;;;4991335;28;19921;-61
2022/10/17 00:58:01;;;;;;;;;;;;;;;;;;4982922;28;19964;-61
2022/10/17 01:00:26;;;;;;;;;;;;;;;;;;4963052;28;20380;-61
2022/10/17 01:02:51;;;;;;;;;;;;;;;;;;4978509;28;19921;-61
2022/10/17 01:05:16;;;;;;;;;;;;;;;;;;4997680;28;19921;-61
2022/10/17 01:07:41;;;;;;;;;;;;;;;;;;4993349;28;20739;-61
2022/10/17 01:10:07;;;;;;;;;;;;;;;;;;4995918;28;19917;-61
2022/10/17 01:12:32;;;;;;;;;;;;;;;;;;4993442;28;20282;-61
2022/10/17 01:14:57;;;;;;;;;;;;;;;;;;4992733;28;19921;-61
2022/10/17 01:17:22;;;;;;;;;;;;;;;;;;4986475;28;20035;-61
2022/10/17 01:19:48;;;;;;;;;;;;;;;;;;4981017;28;19933;-61
2022/10/17 01:22:13;;;;;;;;;;;;;;;;;;4985589;28;19964;-61
2022/10/17 01:24:38;;;;;;;;;;;;;;;;;;4994624;28;19917;-62
2022/10/17 01:27:03;;;;;;;;;;;;;;;;;;4993347;28;19921;-61
2022/10/17 01:29:29;;;;;;;;;;;;;;;;;;4997893;28;19917;-61
2022/10/17 01:31:54;;;;;;;;;;;;;;;;;;4981801;28;20060;-61
2022/10/17 01:34:21;;;;;;;;;;;;;;;;;;4984561;28;19975;-62
2022/10/17 01:36:46;;;;;;;;;;;;;;;;;;4995045;28;19926;-62
2022/10/17 01:39:11;;;;;;;;;;;;;;;;;;4993293;28;19964;-61
2022/10/17 01:41:36;;;;;;;;;;;;;;;;;;4988540;28;19913;-61
2022/10/17 01:44:02;;;;;;;;;;;;;;;;;;4992878;28;20570;-61
2022/10/17 01:46:28;;;;;;;;;;;;;;;;;;4997316;28;19923;-62
2022/10/17 01:48:53;;;;;;;;;;;;;;;;;;4994758;28;19913;-61
2022/10/17 01:51:18;;;;;;;;;;;;;;;;;;4979494;28;19925;-62
2022/10/17 01:53:43;;;;;;;;;;;;;;;;;;4988561;28;19917;-61
2022/10/17 01:56:08;;;;;;;;;;;;;;;;;;4996342;28;19926;-61
2022/10/17 01:58:34;;;;;;;;;;;;;;;;;;4986408;28;19917;-62
2022/10/17 02:00:59;;;;;;;;;;;;;;;;;;4982986;28;19924;-61
2022/10/17 02:03:26;;;;;;;;;;;;;;;;;;4993035;28;19937;-61
2022/10/17 02:05:51;;;;;;;;;;;;;;;;;;4998612;28;20396;-61
2022/10/17 02:08:17;;;;;;;;;;;;;;;;;;4981469;28;19964;-62
2022/10/17 02:10:42;;;;;;;;;;;;;;;;;;4997102;28;19928;-62
2022/10/17 02:13:08;;;;;;;;;;;;;;;;;;4984758;28;19972;-61
2022/10/17 02:15:33;;;;;;;;;;;;;;;;;;4981103;28;19925;-61
2022/10/17 02:17:59;;;;;;;;;;;;;;;;;;4984788;28;19926;-61
2022/10/17 02:20:24;;;;;;;;;;;;;;;;;;4992772;28;19921;-61
2022/10/17 02:22:49;;;;;;;;;;;;;;;;;;4996143;28;20409;-62
2022/10/17 02:25:14;;;;;;;;;;;;;;;;;;5000872;28;19964;-61
2022/10/17 02:27:39;;;;;;;;;;;;;;;;;;4981377;28;19917;-61
2022/10/17 02:30:05;;;;;;;;;;;;;;;;;;5000678;28;19924;-61
2022/10/17 02:32:30;;;;;;;;;;;;;;;;;;4996575;28;19917;-61
2022/10/17 02:34:56;;;;;;;;;;;;;;;;;;4997820;28;19929;-62
2022/10/17 02:37:21;;;;;;;;;;;;;;;;;;4987936;28;19926;-61
2022/10/17 02:39:46;;;;;;;;;;;;;;;;;;4983665;28;20004;-61
2022/10/17 02:42:12;;;;;;;;;;;;;;;;;;4984303;28;19997;-61
2022/10/17 02:44:37;;;;;;;;;;;;;;;;;;4994939;28;19926;-61
2022/10/17 02:47:02;;;;;;;;;;;;;;;;;;4994022;28;19918;-62
2022/10/17 02:49:27;;;;;;;;;;;;;;;;;;4988355;28;19921;-61
2022/10/17 02:51:52;;;;;;;;;;;;;;;;;;4979168;28;20334;-61
2022/10/17 02:54:18;;;;;;;;;;;;;;;;;;4988775;28;19917;-61
2022/10/17 02:56:43;;;;;;;;;;;;;;;;;;4980557;28;20596;-61
2022/10/17 02:59:08;;;;;;;;;;;;;;;;;;4991473;28;19939;-62
2022/10/17 03:01:33;;;;;;;;;;;;;;;;;;5002583;28;19918;-61
2022/10/17 03:03:58;;;;;;;;;;;;;;;;;;4991001;28;20149;-61
2022/10/17 03:06:24;;;;;;;;;;;;;;;;;;5004293;28;20001;-61
2022/10/17 03:08:49;;;;;;;;;;;;;;;;;;4993592;28;19921;-60
2022/10/17 03:11:14;;;;;;;;;;;;;;;;;;4996244;28;19924;-61
2022/10/17 03:13:39;;;;;;;;;;;;;;;;;;4984770;28;19972;-61
2022/10/17 03:16:05;;;;;;;;;;;;;;;;;;4977650;28;19932;-62
2022/10/17 03:18:30;;;;;;;;;;;;;;;;;;4985738;28;20345;-61
2022/10/17 03:20:58;;;;;;;;;;;;;;;;;;4975721;28;20551;-61
2022/10/17 03:23:23;;;;;;;;;;;;;;;;;;4978649;28;20327;-61
2022/10/17 03:25:49;;;;;;;;;;;;;;;;;;4987508;28;19918;-61
2022/10/17 03:28:14;;;;;;;;;;;;;;;;;;4994913;28;19976;-61
2022/10/17 03:30:39;;;;;;;;;;;;;;;;;;4984490;28;20421;-61
2022/10/17 03:33:05;;;;;;;;;;;;;;;;;;4978220;28;19918;-61
2022/10/17 03:35:30;;;;;;;;;;;;;;;;;;4981943;28;20282;-61
2022/10/17 03:37:55;;;;;;;;;;;;;;;;;;4988197;28;19926;-61
2022/10/17 03:40:21;;;;;;;;;;;;;;;;;;4980184;28;20036;-61
2022/10/17 03:42:46;;;;;;;;;;;;;;;;;;4996850;28;19917;-61
2022/10/17 03:45:11;;;;;;;;;;;;;;;;;;4992921;28;19992;-61
2022/10/17 03:47:37;;;;;;;;;;;;;;;;;;4991212;28;19960;-61
2022/10/17 03:50:02;;;;;;;;;;;;;;;;;;5000638;28;19917;-62
2022/10/17 03:52:30;;;;;;;;;;;;;;;;;;4996205;28;19921;-61
2022/10/17 03:54:55;;;;;;;;;;;;;;;;;;4983867;28;19917;-61
2022/10/17 03:57:20;;;;;;;;;;;;;;;;;;4977195;28;19929;-61
2022/10/17 03:59:46;;;;;;;;;;;;;;;;;;4979557;28;19967;-61
2022/10/17 04:02:15;;;;;;;;;;;;;;;;;;4998671;28;19917;-61
2022/10/17 04:04:40;;;;;;;;;;;;;;;;;;4991017;28;20292;-61
2022/10/17 04:07:05;;;;;;;;;;;;;;;;;;4987066;28;19918;-61
2022/10/17 04:09:32;;;;;;;;;;;;;;;;;;4994838;28;19917;-61
2022/10/17 04:12:02;;;;;;;;;;;;;;;;;;4990605;28;19924;-61
2022/10/17 04:14:29;;;;;;;;;;;;;;;;;;4985201;28;20005;-61
2022/10/17 04:16:54;;;;;;;;;;;;;;;;;;4998221;28;19932;-61
2022/10/17 04:19:20;;;;;;;;;;;;;;;;;;4986690;28;20662;-61
2022/10/17 04:21:45;;;;;;;;;;;;;;;;;;4981860;28;19918;-61
2022/10/17 04:24:12;;;;;;;;;;;;;;;;;;4980386;28;19917;-60
2022/10/17 04:26:46;;;;;;;;;;;;;;;;;;4999319;28;19917;-61
2022/10/17 04:29:13;;;;;;;;;;;;;;;;;;4979263;28;20016;-61
2022/10/17 04:31:39;;;;;;;;;;;;;;;;;;4996720;28;20388;-61
2022/10/17 04:34:16;;;;;;;;;;;;;;;;;;4998693;28;19921;-61
2022/10/17 04:36:42;;;;;;;;;;;;;;;;;;4995804;28;19925;-61
2022/10/17 04:39:07;;;;;;;;;;;;;;;;;;4996860;28;20035;-62
2022/10/17 04:41:34;;;;;;;;;;;;;;;;;;4980473;28;19917;-61
2022/10/17 04:44:00;;;;;;;;;;;;;;;;;;4995817;28;19924;-62
2022/10/17 04:46:25;;;;;;;;;;;;;;;;;;4985681;28;19924;-61
2022/10/17 04:48:50;;;;;;;;;;;;;;;;;;4996173;28;20254;-60
2022/10/17 04:51:16;;;;;;;;;;;;;;;;;;5005250;28;20460;-61
2022/10/17 04:53:58;;;;;;;;;;;;;;;;;;4980899;28;20330;-61
2022/10/17 04:56:23;;;;;;;;;;;;;;;;;;4982176;28;19936;-61
2022/10/17 04:58:49;;;;;;;;;;;;;;;;;;4999819;28;19917;-61
2022/10/17 05:01:14;;;;;;;;;;;;;;;;;;4982731;28;19964;-60
2022/10/17 05:03:41;;;;;;;;;;;;;;;;;;5000365;28;20290;-61
2022/10/17 05:06:06;;;;;;;;;;;;;;;;;;4993521;28;19921;-61
2022/10/17 05:08:31;;;;;;;;;;;;;;;;;;4983153;28;19924;-61
2022/10/17 05:10:56;;;;;;;;;;;;;;;;;;4988166;28;19921;-61
2022/10/17 05:13:22;;;;;;;;;;;;;;;;;;4994540;28;19928;-61
2022/10/17 05:15:47;;;;;;;;;;;;;;;;;;5002586;28;19964;-61
2022/10/17 05:18:12;;;;;;;;;;;;;;;;;;4981637;28;19917;-61
2022/10/17 05:20:40;;;;;;;;;;;;;;;;;;4979130;28;20013;-61
2022/10/17 05:23:05;;;;;;;;;;;;;;;;;;5000411;28;20275;-61
2022/10/17 05:25:34;;;;;;;;;;;;;;;;;;4993776;28;19921;-63
2022/10/17 05:27:59;;;;;;;;;;;;;;;;;;4995403;28;20400;-61
2022/10/17 05:30:24;;;;;;;;;;;;;;;;;;4994950;28;19924;-60
2022/10/17 05:32:55;;;;;;;;;;;;;;;;;;4985000;28;20287;-61
2022/10/17 05:35:21;;;;;;;;;;;;;;;;;;4992768;28;19935;-62
2022/10/17 05:37:46;;;;;;;;;;;;;;;;;;4991191;28;19936;-62
2022/10/17 05:40:11;;;;;;;;;;;;;;;;;;5007164;28;20351;-61
2022/10/17 05:42:39;;;;;;;;;;;;;;;;;;5006196;28;19914;-61
2022/10/17 05:45:04;;;;;;;;;;;;;;;;;;5004144;28;19978;-61
2022/10/17 05:47:30;;;;;;;;;;;;;;;;;;4993460;28;19925;-61
2022/10/17 05:49:55;;;;;;;;;;;;;;;;;;5010923;28;20013;-61
2022/10/17 05:52:33;;;;;;;;;;;;;;;;;;5008041;28;20111;-61
2022/10/17 05:55:16;;;;;;;;;;;;;;;;;;4992485;28;19917;-61
2022/10/17 05:57:42;;;;;;;;;;;;;;;;;;5003917;28;19931;-62
2022/10/17 06:00:12;;;;;;;;;;;;;;;;;;4992725;28;19913;-61
2022/10/17 06:02:41;;;;;;;;;;;;;;;;;;5007868;28;19924;-61
2022/10/17 06:05:08;;;;;;;;;;;;;;;;;;4974541;28;19918;-62
2022/10/17 06:07:33;;;;;;;;;;;;;;;;;;4985570;28;19944;-62
2022/10/17 06:09:59;;;;;;;;;;;;;;;;;;4990331;28;19917;-61
2022/10/17 06:12:24;;;;;;;;;;;;;;;;;;4991902;28;20404;-61
2022/10/17 06:14:49;;;;;;;;;;;;;;;;;;4987608;28;19983;-61
2022/10/17 06:17:15;;;;;;;;;;;;;;;;;;4988842;28;19925;-60
2022/10/17 06:19:41;;;;;;;;;;;;;;;;;;4992802;28;19999;-61
2022/10/17 06:22:06;;;;;;;;;;;;;;;;;;5011684;28;20015;-61
2022/10/17 06:24:31;;;;;;;;;;;;;;;;;;5010538;28;19965;-61
2022/10/17 06:26:56;;;;;;;;;;;;;;;;;;4999086;28;19929;-62
2022/10/17 06:29:21;;;;;;;;;;;;;;;;;;4992386;28;19928;-61
2022/10/17 06:31:49;;;;;;;;;;;;;;;;;;4975638;28;19918;-62
2022/10/17 06:34:15;;;;;;;;;;;;;;;;;;5001391;28;19917;-62
2022/10/17 06:36:40;;;;;;;;;;;;;;;;;;4994898;28;20455;-61
2022/10/17 06:39:06;;;;;;;;;;;;;;;;;;4974214;28;19913;-61
2022/10/17 06:41:40;;;;;;;;;;;;;;;;;;4996336;28;19921;-61
2022/10/17 06:44:10;;;;;;;;;;;;;;;;;;4994479;28;19964;-62
2022/10/17 06:47:09;;;;;;;;;;;;;;;;;;5004733;28;20282;-61
2022/10/17 06:49:35;;;;;;;;;;;;;;;;;;5001868;28;19959;-62
2022/10/17 06:52:18;;;;;;;;;;;;;;;;;;5008064;28;19928;-61
2022/10/17 06:55:06;;;;;;;;;;;;;;;;;;4992233;28;19983;-62
2022/10/17 06:57:45;;;;;;;;;;;;;;;;;;4993951;28;20610;-61
2022/10/17 07:00:36;;;;;;;;;;;;;;;;;;4974016;28;20024;-62
2022/10/17 07:03:01;;;;;;;;;;;;;;;;;;4991826;28;20679;-61
2022/10/17 07:05:26;;;;;;;;;;;;;;;;;;4993485;28;19968;-62
2022/10/17 07:07:52;;;;;;;;;;;;;;;;;;5008818;28;19917;-62
2022/10/17 07:10:17;;;;;;;;;;;;;;;;;;5008387;28;20335;-61
2022/10/17 07:12:44;;;;;;;;;;;;;;;;;;4994141;28;19921;-61
2022/10/17 07:15:09;;;;;;;;;;;;;;;;;;5008021;28;19917;-62
2022/10/17 07:17:34;;;;;;;;;;;;;;;;;;5000219;28;19932;-62
2022/10/17 07:20:00;;;;;;;;;;;;;;;;;;4996354;28;19921;-62
2022/10/17 07:22:25;;;;;;;;;;;;;;;;;;4989027;28;19951;-62
2022/10/17 07:24:54;;;;;;;;;;;;;;;;;;4996704;28;19917;-62
2022/10/17 07:27:25;;;;;;;;;;;;;;;;;;5007084;28;19971;-62
2022/10/17 07:29:51;;;;;;;;;;;;;;;;;;4991335;28;19918;-61
2022/10/17 07:32:31;;;;;;;;;;;;;;;;;;4993865;28;20420;-61
2022/10/17 07:34:57;;;;;;;;;;;;;;;;;;5009538;28;19921;-61
2022/10/17 07:37:22;;;;;;;;;;;;;;;;;;5001420;28;19930;-62
2022/10/17 07:39:52;;;;;;;;;;;;;;;;;;4989900;28;20350;-61
2022/10/17 07:42:17;;;;;;;;;;;;;;;;;;4989388;28;19922;-61
2022/10/17 07:44:46;;;;;;;;;;;;;;;;;;4989713;28;19921;-61
2022/10/17 07:47:11;;;;;;;;;;;;;;;;;;5004377;28;20377;-61
2022/10/17 07:49:41;;;;;;;;;;;;;;;;;;4989013;28;19921;-63
2022/10/17 07:52:06;;;;;;;;;;;;;;;;;;5006973;28;20016;-62
2022/10/17 07:54:31;;;;;;;;;;;;;;;;;;5009173;28;20374;-62
2022/10/17 07:56:56;;;;;;;;;;;;;;;;;;5007535;28;19929;-62
2022/10/17 07:59:23;;;;;;;;;;;;;;;;;;5007389;28;19924;-62
2022/10/17 08:01:48;;;;;;;;;;;;;;;;;;5007824;28;19992;-60
2022/10/17 08:04:15;;;;;;;;;;;;;;;;;;4987866;28;19917;-62
2022/10/17 08:06:40;;;;;;;;;;;;;;;;;;5009139;28;19928;-61
2022/10/17 08:09:05;;;;;;;;;;;;;;;;;;5009121;28;19962;-61
2022/10/17 08:11:38;;;;;;;;;;;;;;;;;;5083458;27;20016;-62
2022/10/17 08:14:04;;;;;;;;;;;;;;;;;;5040462;28;20352;-61
2022/10/17 08:16:29;;;;;;;;;;;;;;;;;;5041303;28;20418;-61
2022/10/17 08:18:54;;;;;;;;;;;;;;;;;;5040446;28;19917;-62
2022/10/17 08:21:19;;;;;;;;;;;;;;;;;;5040740;28;20012;-62
2022/10/17 08:23:44;;;;;;;;;;;;;;;;;;5042539;28;19920;-62
2022/10/17 08:26:12;;;;;;;;;;;;;;;;;;5037632;28;19917;-63
2022/10/17 08:28:37;;;;;;;;;;;;;;;;;;5040403;28;19924;-62
2022/10/17 08:31:02;;;;;;;;;;;;;;;;;;5039975;28;20269;-62
2022/10/17 08:33:27;;;;;;;;;;;;;;;;;;5042089;28;19925;-62
2022/10/17 08:35:52;;;;;;;;;;;;;;;;;;5039754;28;19921;-62
2022/10/17 08:38:18;;;;;;;;;;;;;;;;;;5040871;28;19917;-62
2022/10/17 08:40:43;;;;;;;;;;;;;;;;;;5039537;28;19961;-63
2022/10/17 08:43:08;;;;;;;;;;;;;;;;;;5040295;28;19920;-62
2022/10/17 08:45:33;;;;;;;;;;;;;;;;;;5039722;28;19928;-62
2022/10/17 08:47:59;;;;;;;;;;;;;;;;;;5038506;28;19922;-62
2022/10/17 08:50:24;;;;;;;;;;;;;;;;;;5036683;28;19928;-62
2022/10/17 08:52:49;;;;;;;;;;;;;;;;;;5037688;28;19952;-61
2022/10/17 08:55:14;;;;;;;;;;;;;;;;;;5033537;28;20388;-64
2022/10/17 08:57:39;;;;;;;;;;;;;;;;;;5036254;28;19920;-62
2022/10/17 09:00:04;;;;;;;;;;;;;;;;;;5036134;28;19995;-61
2022/10/17 09:02:30;;;;;;;;;;;;;;;;;;5036099;28;19928;-62
2022/10/17 09:04:56;;;;;;;;;;;;;;;;;;5037261;28;19917;-62
2022/10/17 09:07:21;;;;;;;;;;;;;;;;;;5035615;28;19924;-62
2022/10/17 09:09:46;;;;;;;;;;;;;;;;;;5036310;28;19925;-62
2022/10/17 09:12:11;;;;;;;;;;;;;;;;;;5035626;28;19917;-62
2022/10/17 09:14:37;;;;;;;;;;;;;;;;;;5033884;28;19917;-61
2022/10/17 09:17:02;;;;;;;;;;;;;;;;;;5034165;28;19917;-61
2022/10/17 09:19:27;;;;;;;;;;;;;;;;;;5035895;28;19917;-61
2022/10/17 09:21:52;;;;;;;;;;;;;;;;;;5031455;28;19936;-62
2022/10/17 09:24:17;;;;;;;;;;;;;;;;;;5025850;28;20067;-62
2022/10/17 09:26:42;;;;;;;;;;;;;;;;;;5020569;28;19924;-61
2022/10/17 09:29:08;;;;;;;;;;;;;;;;;;5019925;28;19921;-62
2022/10/17 09:31:33;;;;;;;;;;;;;;;;;;5022966;28;20638;-62
2022/10/17 09:33:58;;;;;;;;;;;;;;;;;;5021492;28;19963;-62
2022/10/17 09:36:23;;;;;;;;;;;;;;;;;;5021944;28;19917;-62
2022/10/17 09:38:49;;;;;;;;;;;;;;;;;;5022426;28;19921;-61
2022/10/17 09:41:14;;;;;;;;;;;;;;;;;;5022206;28;19961;-62
2022/10/17 09:43:39;;;;;;;;;;;;;;;;;;5020630;28;20335;-62
2022/10/17 09:46:04;;;;;;;;;;;;;;;;;;5017568;28;19917;-62
2022/10/17 09:48:29;;;;;;;;;;;;;;;;;;5021526;28;19928;-61
2022/10/17 09:50:55;;;;;;;;;;;;;;;;;;5023774;28;19978;-62
2022/10/17 09:53:20;;;;;;;;;;;;;;;;;;5025023;28;20012;-62
2022/10/17 09:55:47;;;;;;;;;;;;;;;;;;5025115;28;20795;-62
2022/10/17 09:58:12;;;;;;;;;;;;;;;;;;5024720;28;19924;-62
2022/10/17 10:00:37;;;;;;;;;;;;;;;;;;5019295;28;19932;-62
2022/10/17 10:03:02;;;;;;;;;;;;;;;;;;5022183;28;19952;-62
2022/10/17 10:05:27;;;;;;;;;;;;;;;;;;5022412;28;19924;-62
2022/10/17 10:07:53;;;;;;;;;;;;;;;;;;5017286;28;20012;-62
2022/10/17 10:10:18;;;;;;;;;;;;;;;;;;5021992;28;19925;-62
2022/10/17 10:12:43;;;;;;;;;;;;;;;;;;5021342;28;19924;-62
2022/10/17 10:15:08;;;;;;;;;;;;;;;;;;5021277;28;19979;-62
2022/10/17 10:17:33;;;;;;;;;;;;;;;;;;5021835;28;20634;-62
2022/10/17 10:19:59;;;;;;;;;;;;;;;;;;5023246;28;20003;-62
2022/10/17 10:22:24;;;;;;;;;;;;;;;;;;5022772;28;19924;-62
2022/10/17 10:24:49;;;;;;;;;;;;;;;;;;5018641;28;19922;-63
2022/10/17 10:27:14;;;;;;;;;;;;;;;;;;5020439;28;19921;-62
2022/10/17 10:29:39;;;;;;;;;;;;;;;;;;5017242;28;20405;-62
2022/10/17 10:32:04;;;;;;;;;;;;;;;;;;5017792;28;19928;-63
2022/10/17 10:34:31;;;;;;;;;;;;;;;;;;5021422;28;19921;-62
2022/10/17 10:36:56;;;;;;;;;;;;;;;;;;5022507;28;20004;-62
2022/10/17 10:39:21;;;;;;;;;;;;;;;;;;5022086;28;20004;-62
2022/10/17 10:41:46;;;;;;;;;;;;;;;;;;5022388;28;20683;-62
2022/10/17 10:44:12;;;;;;;;;;;;;;;;;;5023453;28;19921;-62
2022/10/17 10:46:37;;;;;;;;;;;;;;;;;;5022062;28;19952;-61
2022/10/17 10:49:02;;;;;;;;;;;;;;;;;;5024987;28;20567;-61
2022/10/17 10:51:27;;;;;;;;;;;;;;;;;;5022481;28;19921;-61
2022/10/17 10:53:52;;;;;;;;;;;;;;;;;;5016728;28;19928;-60
2022/10/17 10:56:18;;;;;;;;;;;;;;;;;;5020797;28;19913;-61
2022/10/17 10:58:43;;;;;;;;;;;;;;;;;;5019878;28;19921;-63
2022/10/17 11:01:08;;;;;;;;;;;;;;;;;;5021773;28;19924;-61
2022/10/17 11:03:33;;;;;;;;;;;;;;;;;;5024187;28;19921;-62
2022/10/17 11:05:58;;;;;;;;;;;;;;;;;;5021420;28;19917;-62
2022/10/17 11:08:24;;;;;;;;;;;;;;;;;;5021087;28;19920;-62
2022/10/17 11:10:49;;;;;;;;;;;;;;;;;;5018473;28;20019;-62
2022/10/17 11:13:14;;;;;;;;;;;;;;;;;;5022484;28;19928;-62
2022/10/17 11:15:39;;;;;;;;;;;;;;;;;;5020111;28;19921;-62
2022/10/17 11:18:05;;;;;;;;;;;;;;;;;;5022691;28;19953;-62
2022/10/17 11:20:30;;;;;;;;;;;;;;;;;;5021969;28;19917;-62
2022/10/17 11:22:56;;;;;;;;;;;;;;;;;;5020510;28;20321;-62
2022/10/17 11:25:21;;;;;;;;;;;;;;;;;;5020559;28;19921;-62
2022/10/17 11:27:46;;;;;;;;;;;;;;;;;;5018297;28;20003;-62
2022/10/17 11:30:12;;;;;;;;;;;;;;;;;;5017942;28;20400;-63
2022/10/17 11:32:37;;;;;;;;;;;;;;;;;;5022992;28;19921;-63
2022/10/17 11:35:02;;;;;;;;;;;;;;;;;;5021112;28;20168;-65
2022/10/17 11:37:27;;;;;;;;;;;;;;;;;;5018632;28;19917;-63
2022/10/17 11:39:52;;;;;;;;;;;;;;;;;;5017895;28;19948;-62
2022/10/17 11:42:18;;;;;;;;;;;;;;;;;;5018799;28;20333;-62
2022/10/17 11:44:43;;;;;;;;;;;;;;;;;;5020305;28;20023;-63
2022/10/17 11:47:08;;;;;;;;;;;;;;;;;;5018972;28;19917;-62
2022/10/17 11:49:34;;;;;;;;;;;;;;;;;;5020167;28;20516;-63
2022/10/17 11:51:59;;;;;;;;;;;;;;;;;;5015954;28;20044;-63
2022/10/17 11:54:24;;;;;;;;;;;;;;;;;;5021707;28;19917;-63
2022/10/17 11:56:49;;;;;;;;;;;;;;;;;;5019829;28;20766;-63
2022/10/17 11:59:14;;;;;;;;;;;;;;;;;;5019311;28;19917;-63
2022/10/17 12:01:39;;;;;;;;;;;;;;;;;;5019822;28;19921;-63
2022/10/17 12:04:05;;;;;;;;;;;;;;;;;;5021535;28;20044;-63
2022/10/17 12:06:30;;;;;;;;;;;;;;;;;;5024498;28;19932;-63
2022/10/17 12:08:55;;;;;;;;;;;;;;;;;;5024742;28;19929;-63
2022/10/17 12:11:20;;;;;;;;;;;;;;;;;;5040323;28;19956;-63
2022/10/17 12:13:46;;;;;;;;;;;;;;;;;;5039366;28;20403;-63
2022/10/17 12:16:11;;;;;;;;;;;;;;;;;;5040248;28;19921;-63
2022/10/17 12:18:36;;;;;;;;;;;;;;;;;;5042515;28;19916;-63
2022/10/17 12:21:01;;;;;;;;;;;;;;;;;;5043050;28;19925;-63
2022/10/17 12:23:26;;;;;;;;;;;;;;;;;;5037089;28;20274;-63
2022/10/17 12:25:52;;;;;;;;;;;;;;;;;;5038227;28;19913;-63
2022/10/17 12:28:17;;;;;;;;;;;;;;;;;;5039096;28;19999;-63
2022/10/17 12:30:42;;;;;;;;;;;;;;;;;;5038981;28;19920;-63
2022/10/17 12:33:07;;;;;;;;;;;;;;;;;;5041943;28;19928;-63
2022/10/17 12:35:32;;;;;;;;;;;;;;;;;;5039541;28;20003;-63
2022/10/17 12:37:57;;;;;;;;;;;;;;;;;;5038130;28;19956;-63
2022/10/17 12:40:23;;;;;;;;;;;;;;;;;;5040413;28;19923;-63
2022/10/17 12:42:48;;;;;;;;;;;;;;;;;;5039738;28;20324;-63
2022/10/17 12:45:13;;;;;;;;;;;;;;;;;;5041398;28;20015;-63
2022/10/17 12:47:38;;;;;;;;;;;;;;;;;;5041443;28;20008;-63
2022/10/17 12:50:03;;;;;;;;;;;;;;;;;;5033170;28;19927;-63
2022/10/17 12:52:30;;;;;;;;;;;;;;;;;;5041237;28;19932;-62
2022/10/17 12:54:55;;;;;;;;;;;;;;;;;;5038409;28;19920;-62
2022/10/17 12:57:20;;;;;;;;;;;;;;;;;;5041627;28;20263;-62
2022/10/17 12:59:45;;;;;;;;;;;;;;;;;;5043459;28;20003;-62
2022/10/17 13:02:10;;;;;;;;;;;;;;;;;;5043723;28;19921;-62
2022/10/17 13:04:36;;;;;;;;;;;;;;;;;;5047088;28;19917;-62
2022/10/17 13:07:01;;;;;;;;;;;;;;;;;;5044593;28;19917;-62
2022/10/17 13:09:26;;;;;;;;;;;;;;;;;;5042128;28;20877;-62
2022/10/17 13:11:51;;;;;;;;;;;;;;;;;;5041319;28;19943;-62
2022/10/17 13:14:16;;;;;;;;;;;;;;;;;;5041519;28;20262;-62
2022/10/17 13:16:42;;;;;;;;;;;;;;;;;;5045081;28;20310;-62
2022/10/17 13:19:07;;;;;;;;;;;;;;;;;;5042655;28;19924;-62
2022/10/17 13:21:32;;;;;;;;;;;;;;;;;;5042413;28;19959;-62
2022/10/17 13:23:57;;;;;;;;;;;;;;;;;;5042350;28;19921;-62
2022/10/17 13:26:22;;;;;;;;;;;;;;;;;;5042091;28;19943;-62
2022/10/17 13:28:48;;;;;;;;;;;;;;;;;;5045442;28;19917;-62
2022/10/17 13:31:13;;;;;;;;;;;;;;;;;;5041799;28;19928;-61
2022/10/17 13:33:38;;;;;;;;;;;;;;;;;;5041097;28;20023;-62
2022/10/17 13:36:03;;;;;;;;;;;;;;;;;;5043074;28;19991;-62
2022/10/17 13:38:28;;;;;;;;;;;;;;;;;;5038972;28;20004;-62
2022/10/17 13:40:54;;;;;;;;;;;;;;;;;;5038127;28;19917;-62
2022/10/17 13:43:19;;;;;;;;;;;;;;;;;;5046075;28;20261;-61
2022/10/17 13:45:44;;;;;;;;;;;;;;;;;;5044717;28;19973;-62
2022/10/17 13:48:09;;;;;;;;;;;;;;;;;;5043141;28;19917;-62
2022/10/17 13:50:34;;;;;;;;;;;;;;;;;;5042177;28;19920;-61
2022/10/17 13:52:59;;;;;;;;;;;;;;;;;;5040821;28;20151;-62
2022/10/17 13:55:25;;;;;;;;;;;;;;;;;;5045736;28;19921;-62
2022/10/17 13:57:51;;;;;;;;;;;;;;;;;;5040197;28;20527;-62
2022/10/17 14:00:16;;;;;;;;;;;;;;;;;;5043165;28;19921;-62
2022/10/17 14:02:41;;;;;;;;;;;;;;;;;;5043953;28;19913;-62
2022/10/17 14:05:07;;;;;;;;;;;;;;;;;;5043320;28;20477;-62
2022/10/17 14:07:32;;;;;;;;;;;;;;;;;;5040771;28;19917;-62
2022/10/17 14:09:58;;;;;;;;;;;;;;;;;;5041143;28;19924;-62
2022/10/17 14:12:23;;;;;;;;;;;;;;;;;;5044751;28;19947;-62
2022/10/17 14:14:48;;;;;;;;;;;;;;;;;;5043358;28;19916;-62
2022/10/17 14:17:13;;;;;;;;;;;;;;;;;;5042350;28;19947;-62
2022/10/17 14:19:39;;;;;;;;;;;;;;;;;;5046452;28;19917;-62
2022/10/17 14:22:04;;;;;;;;;;;;;;;;;;5044561;28;19948;-62
2022/10/17 14:24:30;;;;;;;;;;;;;;;;;;5039302;28;19917;-62
2022/10/17 14:26:57;;;;;;;;;;;;;;;;;;5044763;28;19928;-63
2022/10/17 14:29:23;;;;;;;;;;;;;;;;;;5042533;28;19955;-62
2022/10/17 14:31:52;;;;;;;;;;;;;;;;;;5042199;28;20025;-62
2022/10/17 14:34:17;;;;;;;;;;;;;;;;;;5043834;28;19921;-62
2022/10/17 14:36:42;;;;;;;;;;;;;;;;;;5043928;28;19920;-62
2022/10/17 14:39:07;;;;;;;;;;;;;;;;;;5040963;28;20742;-62
2022/10/17 14:41:33;;;;;;;;;;;;;;;;;;5043555;28;20388;-62
2022/10/17 14:43:58;;;;;;;;;;;;;;;;;;5039984;28;19928;-62
2022/10/17 14:46:23;;;;;;;;;;;;;;;;;;5042027;28;19917;-61
2022/10/17 14:48:49;;;;;;;;;;;;;;;;;;5039900;28;19975;-61
2022/10/17 14:51:14;;;;;;;;;;;;;;;;;;5037369;28;19920;-61
2022/10/17 14:53:39;;;;;;;;;;;;;;;;;;5040414;28;19924;-61
2022/10/17 14:56:08;;;;;;;;;;;;;;;;;;5041034;28;19917;-61
2022/10/17 14:58:34;;;;;;;;;;;;;;;;;;5042597;28;20012;-61
2022/10/17 15:00:59;;;;;;;;;;;;;;;;;;5039868;28;20015;-61
2022/10/17 15:03:24;;;;;;;;;;;;;;;;;;5041176;28;20282;-61
2022/10/17 15:05:49;;;;;;;;;;;;;;;;;;5041481;28;19939;-61
2022/10/17 15:08:14;;;;;;;;;;;;;;;;;;5039741;28;19924;-61
2022/10/17 15:10:42;;;;;;;;;;;;;;;;;;5042018;28;19920;-61
2022/10/17 15:13:08;;;;;;;;;;;;;;;;;;5035971;28;20331;-61
2022/10/17 15:15:33;;;;;;;;;;;;;;;;;;5039261;28;19917;-62
2022/10/17 15:17:58;;;;;;;;;;;;;;;;;;5038994;28;19971;-62
2022/10/17 15:20:25;;;;;;;;;;;;;;;;;;5039366;28;19920;-62
2022/10/17 15:22:51;;;;;;;;;;;;;;;;;;5041003;28;19925;-62
2022/10/17 15:25:16;;;;;;;;;;;;;;;;;;5043201;28;19917;-62
2022/10/17 15:27:41;;;;;;;;;;;;;;;;;;5042054;28;19962;-62
2022/10/17 15:30:06;;;;;;;;;;;;;;;;;;5043291;28;20607;-62
2022/10/17 15:32:32;;;;;;;;;;;;;;;;;;5043692;28;19947;-62
2022/10/17 15:34:57;;;;;;;;;;;;;;;;;;5042721;28;19916;-62
2022/10/17 15:37:22;;;;;;;;;;;;;;;;;;5044558;28;19917;-62
2022/10/17 15:39:51;;;;;;;;;;;;;;;;;;5043462;28;19924;-62
2022/10/17 15:42:16;;;;;;;;;;;;;;;;;;5044346;28;19956;-61
2022/10/17 15:44:43;;;;;;;;;;;;;;;;;;5041586;28;19979;-62
2022/10/17 15:47:08;;;;;;;;;;;;;;;;;;5043568;28;19924;-62
2022/10/17 15:49:33;;;;;;;;;;;;;;;;;;5040633;28;19916;-62
2022/10/17 15:51:59;;;;;;;;;;;;;;;;;;5041191;28;19920;-62
2022/10/17 15:54:24;;;;;;;;;;;;;;;;;;5043258;28;20354;-62
2022/10/17 15:56:49;;;;;;;;;;;;;;;;;;5042746;28;19924;-61
2022/10/17 15:59:14;;;;;;;;;;;;;;;;;;5041662;28;20731;-61
2022/10/17 16:01:39;;;;;;;;;;;;;;;;;;5043044;28;19916;-61
2022/10/17 16:04:05;;;;;;;;;;;;;;;;;;5042478;28;19916;-61
2022/10/17 16:06:30;;;;;;;;;;;;;;;;;;5043064;28;19924;-61
2022/10/17 16:08:55;;;;;;;;;;;;;;;;;;5042639;28;20029;-61
2022/10/17 16:11:20;;;;;;;;;;;;;;;;;;5040327;28;20390;-61
2022/10/17 16:13:45;;;;;;;;;;;;;;;;;;5043604;28;20357;-62
2022/10/17 16:16:10;;;;;;;;;;;;;;;;;;5041344;28;20003;-62
2022/10/17 16:18:36;;;;;;;;;;;;;;;;;;5042740;28;19939;-61
2022/10/17 16:21:01;;;;;;;;;;;;;;;;;;5042336;28;19943;-62
2022/10/17 16:23:26;;;;;;;;;;;;;;;;;;5040957;28;19967;-62
2022/10/17 16:25:51;;;;;;;;;;;;;;;;;;5042789;28;20158;-62
2022/10/17 16:28:16;;;;;;;;;;;;;;;;;;5039383;28;19920;-62
2022/10/17 16:30:43;;;;;;;;;;;;;;;;;;5052663;28;19921;-62
2022/10/17 16:33:09;;;;;;;;;;;;;;;;;;5043915;28;19924;-62
2022/10/17 16:35:34;;;;;;;;;;;;;;;;;;5026656;28;19984;-62
2022/10/17 16:37:59;;;;;;;;;;;;;;;;;;5044936;28;20069;-62